sensor_id;sensor_type;location;lat;lon;timestamp;temperature;humidity
62464;SHT31;48512;48.552;9.380;2023-10-09T00:01:05;13.00;79.81
62464;SHT31;48512;48.552;9.380;2023-10-09T00:03:46;13.06;79.54
62464;SHT31;48512;48.552;9.380;2023-10-09T00:06:16;13.07;79.47
62464;SHT31;48512;48.552;9.380;2023-10-09T00:08:42;13.09;79.47
62464;SHT31;48512;48.552;9.380;2023-10-09T00:11:16;13.07;79.51
62464;SHT31;48512;48.552;9.380;2023-10-09T00:13:44;13.10;79.33
62464;SHT31;48512;48.552;9.380;2023-10-09T00:16:19;13.10;79.40
62464;SHT31;48512;48.552;9.380;2023-10-09T00:19:03;13.07;79.56
62464;SHT31;48512;48.552;9.380;2023-10-09T00:21:44;13.04;79.68
62464;SHT31;48512;48.552;9.380;2023-10-09T00:24:10;13.03;79.69
62464;SHT31;48512;48.552;9.380;2023-10-09T00:26:41;12.95;79.92
62464;SHT31;48512;48.552;9.380;2023-10-09T00:29:15;12.99;80.08
62464;SHT31;48512;48.552;9.380;2023-10-09T00:31:54;12.99;79.87
62464;SHT31;48512;48.552;9.380;2023-10-09T00:34:39;12.97;79.79
62464;SHT31;48512;48.552;9.380;2023-10-09T00:37:06;12.97;79.95
62464;SHT31;48512;48.552;9.380;2023-10-09T00:39:36;12.96;79.98
62464;SHT31;48512;48.552;9.380;2023-10-09T00:42:05;12.90;80.09
62464;SHT31;48512;48.552;9.380;2023-10-09T00:44:38;12.89;80.06
62464;SHT31;48512;48.552;9.380;2023-10-09T00:47:11;12.88;80.16
62464;SHT31;48512;48.552;9.380;2023-10-09T00:50:00;12.88;80.05
62464;SHT31;48512;48.552;9.380;2023-10-09T00:52:32;12.96;79.92
62464;SHT31;48512;48.552;9.380;2023-10-09T00:55:11;13.00;79.89
62464;SHT31;48512;48.552;9.380;2023-10-09T00:57:45;13.03;79.55
62464;SHT31;48512;48.552;9.380;2023-10-09T01:00:17;13.03;79.59
62464;SHT31;48512;48.552;9.380;2023-10-09T01:02:59;13.04;79.74
62464;SHT31;48512;48.552;9.380;2023-10-09T01:08:26;13.02;79.87
62464;SHT31;48512;48.552;9.380;2023-10-09T01:10:55;13.00;79.93
62464;SHT31;48512;48.552;9.380;2023-10-09T01:13:41;12.95;80.03
62464;SHT31;48512;48.552;9.380;2023-10-09T01:16:18;12.83;80.64
62464;SHT31;48512;48.552;9.380;2023-10-09T01:18:45;12.89;80.50
62464;SHT31;48512;48.552;9.380;2023-10-09T01:21:12;12.88;80.34
62464;SHT31;48512;48.552;9.380;2023-10-09T01:23:41;12.89;80.38
62464;SHT31;48512;48.552;9.380;2023-10-09T01:26:35;12.90;80.31
62464;SHT31;48512;48.552;9.380;2023-10-09T01:29:22;12.88;80.37
62464;SHT31;48512;48.552;9.380;2023-10-09T01:31:54;12.90;80.42
62464;SHT31;48512;48.552;9.380;2023-10-09T01:34:24;12.86;80.63
62464;SHT31;48512;48.552;9.380;2023-10-09T01:36:52;12.80;80.81
62464;SHT31;48512;48.552;9.380;2023-10-09T01:39:22;12.80;80.87
62464;SHT31;48512;48.552;9.380;2023-10-09T01:41:57;12.83;80.73
62464;SHT31;48512;48.552;9.380;2023-10-09T01:44:32;12.80;80.90
62464;SHT31;48512;48.552;9.380;2023-10-09T01:47:02;12.75;81.17
62464;SHT31;48512;48.552;9.380;2023-10-09T01:49:37;12.70;81.43
62464;SHT31;48512;48.552;9.380;2023-10-09T01:52:08;12.68;81.62
62464;SHT31;48512;48.552;9.380;2023-10-09T01:54:36;12.70;81.61
62464;SHT31;48512;48.552;9.380;2023-10-09T01:57:07;12.69;81.75
62464;SHT31;48512;48.552;9.380;2023-10-09T01:59:43;12.66;81.74
62464;SHT31;48512;48.552;9.380;2023-10-09T02:02:11;12.66;81.98
62464;SHT31;48512;48.552;9.380;2023-10-09T02:05:04;12.72;81.98
62464;SHT31;48512;48.552;9.380;2023-10-09T02:07:33;12.70;81.97
62464;SHT31;48512;48.552;9.380;2023-10-09T02:10:09;12.66;82.30
62464;SHT31;48512;48.552;9.380;2023-10-09T02:12:48;12.66;82.45
62464;SHT31;48512;48.552;9.380;2023-10-09T02:15:38;12.69;82.31
62464;SHT31;48512;48.552;9.380;2023-10-09T02:18:14;12.68;82.37
62464;SHT31;48512;48.552;9.380;2023-10-09T02:20:48;12.69;82.22
62464;SHT31;48512;48.552;9.380;2023-10-09T02:23:21;12.66;82.15
62464;SHT31;48512;48.552;9.380;2023-10-09T02:25:58;12.62;82.06
62464;SHT31;48512;48.552;9.380;2023-10-09T02:28:27;12.61;82.20
62464;SHT31;48512;48.552;9.380;2023-10-09T02:30:59;12.59;82.44
62464;SHT31;48512;48.552;9.380;2023-10-09T02:33:27;12.63;82.40
62464;SHT31;48512;48.552;9.380;2023-10-09T02:35:54;12.65;82.27
62464;SHT31;48512;48.552;9.380;2023-10-09T02:38:21;12.69;82.22
62464;SHT31;48512;48.552;9.380;2023-10-09T02:40:52;12.70;82.00
62464;SHT31;48512;48.552;9.380;2023-10-09T02:43:32;12.78;81.91
62464;SHT31;48512;48.552;9.380;2023-10-09T02:46:18;12.83;81.82
62464;SHT31;48512;48.552;9.380;2023-10-09T02:48:45;12.85;81.42
62464;SHT31;48512;48.552;9.380;2023-10-09T02:51:22;12.88;81.57
62464;SHT31;48512;48.552;9.380;2023-10-09T02:54:09;12.90;81.62
62464;SHT31;48512;48.552;9.380;2023-10-09T02:56:45;12.92;81.46
62464;SHT31;48512;48.552;9.380;2023-10-09T02:59:20;12.96;81.32
62464;SHT31;48512;48.552;9.380;2023-10-09T03:01:48;12.95;81.38
62464;SHT31;48512;48.552;9.380;2023-10-09T03:04:14;12.96;81.40
62464;SHT31;48512;48.552;9.380;2023-10-09T03:06:41;12.96;81.53
62464;SHT31;48512;48.552;9.380;2023-10-09T03:09:17;12.96;81.58
62464;SHT31;48512;48.552;9.380;2023-10-09T03:11:48;12.95;81.77
62464;SHT31;48512;48.552;9.380;2023-10-09T03:14:22;12.95;82.05
62464;SHT31;48512;48.552;9.380;2023-10-09T03:16:53;12.88;82.40
62464;SHT31;48512;48.552;9.380;2023-10-09T03:19:19;12.86;82.60
62464;SHT31;48512;48.552;9.380;2023-10-09T03:21:45;12.85;82.78
62464;SHT31;48512;48.552;9.380;2023-10-09T03:24:12;12.82;82.86
62464;SHT31;48512;48.552;9.380;2023-10-09T03:26:38;12.79;82.98
62464;SHT31;48512;48.552;9.380;2023-10-09T03:29:04;12.82;82.79
62464;SHT31;48512;48.552;9.380;2023-10-09T03:31:33;12.88;82.80
62464;SHT31;48512;48.552;9.380;2023-10-09T03:34:00;12.89;82.71
62464;SHT31;48512;48.552;9.380;2023-10-09T03:36:26;12.89;82.82
62464;SHT31;48512;48.552;9.380;2023-10-09T03:38:52;12.86;83.00
62464;SHT31;48512;48.552;9.380;2023-10-09T03:41:24;12.76;83.12
62464;SHT31;48512;48.552;9.380;2023-10-09T03:43:55;12.82;83.15
62464;SHT31;48512;48.552;9.380;2023-10-09T03:46:21;12.76;83.38
62464;SHT31;48512;48.552;9.380;2023-10-09T03:48:49;12.70;83.73
62464;SHT31;48512;48.552;9.380;2023-10-09T03:51:15;12.70;83.53
62464;SHT31;48512;48.552;9.380;2023-10-09T03:53:48;12.76;83.44
62464;SHT31;48512;48.552;9.380;2023-10-09T03:56:15;12.80;83.35
62464;SHT31;48512;48.552;9.380;2023-10-09T03:58:45;12.80;83.48
62464;SHT31;48512;48.552;9.380;2023-10-09T04:01:13;12.85;83.74
62464;SHT31;48512;48.552;9.380;2023-10-09T04:03:51;12.85;83.99
62464;SHT31;48512;48.552;9.380;2023-10-09T04:06:24;12.86;83.97
62464;SHT31;48512;48.552;9.380;2023-10-09T04:08:57;12.88;84.17
62464;SHT31;48512;48.552;9.380;2023-10-09T04:11:25;12.86;84.37
62464;SHT31;48512;48.552;9.380;2023-10-09T04:13:51;12.92;84.21
62464;SHT31;48512;48.552;9.380;2023-10-09T04:16:25;12.96;83.92
62464;SHT31;48512;48.552;9.380;2023-10-09T04:18:58;12.99;83.68
62464;SHT31;48512;48.552;9.380;2023-10-09T04:21:26;13.09;83.22
62464;SHT31;48512;48.552;9.380;2023-10-09T04:24:02;13.14;82.67
62464;SHT31;48512;48.552;9.380;2023-10-09T04:26:35;13.23;82.12
62464;SHT31;48512;48.552;9.380;2023-10-09T04:29:03;13.27;81.91
62464;SHT31;48512;48.552;9.380;2023-10-09T04:31:29;13.34;81.74
62464;SHT31;48512;48.552;9.380;2023-10-09T04:34:05;13.38;81.77
62464;SHT31;48512;48.552;9.380;2023-10-09T04:37:10;13.44;81.24
62464;SHT31;48512;48.552;9.380;2023-10-09T04:39:39;13.47;81.20
62464;SHT31;48512;48.552;9.380;2023-10-09T04:42:13;13.50;80.94
62464;SHT31;48512;48.552;9.380;2023-10-09T04:45:03;13.51;80.57
62464;SHT31;48512;48.552;9.380;2023-10-09T04:47:35;13.53;80.78
62464;SHT31;48512;48.552;9.380;2023-10-09T04:50:09;13.61;80.02
62464;SHT31;48512;48.552;9.380;2023-10-09T04:52:44;13.65;79.88
62464;SHT31;48512;48.552;9.380;2023-10-09T04:55:10;13.69;79.41
62464;SHT31;48512;48.552;9.380;2023-10-09T04:57:41;13.66;79.75
62464;SHT31;48512;48.552;9.380;2023-10-09T05:00:15;13.69;79.23
62464;SHT31;48512;48.552;9.380;2023-10-09T05:03:02;13.72;79.13
62464;SHT31;48512;48.552;9.380;2023-10-09T05:05:47;13.72;79.19
62464;SHT31;48512;48.552;9.380;2023-10-09T05:08:16;13.72;78.63
62464;SHT31;48512;48.552;9.380;2023-10-09T05:11:02;13.83;77.84
62464;SHT31;48512;48.552;9.380;2023-10-09T05:13:36;13.90;78.08
62464;SHT31;48512;48.552;9.380;2023-10-09T05:16:23;13.90;78.35
62464;SHT31;48512;48.552;9.380;2023-10-09T05:18:52;13.85;78.54
62464;SHT31;48512;48.552;9.380;2023-10-09T05:21:29;13.85;78.68
62464;SHT31;48512;48.552;9.380;2023-10-09T05:23:59;13.82;78.14
62464;SHT31;48512;48.552;9.380;2023-10-09T05:26:46;13.87;78.08
62464;SHT31;48512;48.552;9.380;2023-10-09T05:31:46;13.87;78.02
62464;SHT31;48512;48.552;9.380;2023-10-09T05:34:23;13.93;78.09
62464;SHT31;48512;48.552;9.380;2023-10-09T05:37:06;13.87;78.59
62464;SHT31;48512;48.552;9.380;2023-10-09T05:39:55;13.89;78.58
62464;SHT31;48512;48.552;9.380;2023-10-09T05:42:32;13.86;78.77
62464;SHT31;48512;48.552;9.380;2023-10-09T05:45:18;13.90;78.36
62464;SHT31;48512;48.552;9.380;2023-10-09T05:47:52;13.95;77.79
62464;SHT31;48512;48.552;9.380;2023-10-09T05:50:37;14.01;77.61
62464;SHT31;48512;48.552;9.380;2023-10-09T05:53:22;14.12;76.91
62464;SHT31;48512;48.552;9.380;2023-10-09T05:56:06;14.16;76.45
62464;SHT31;48512;48.552;9.380;2023-10-09T05:58:51;14.30;75.68
62464;SHT31;48512;48.552;9.380;2023-10-09T06:01:40;14.65;80.42
62464;SHT31;48512;48.552;9.380;2023-10-09T06:04:24;14.61;75.39
62464;SHT31;48512;48.552;9.380;2023-10-09T06:07:15;14.68;74.49
62464;SHT31;48512;48.552;9.380;2023-10-09T06:09:48;14.68;74.16
62464;SHT31;48512;48.552;9.380;2023-10-09T06:12:22;14.74;74.56
62464;SHT31;48512;48.552;9.380;2023-10-09T06:15:15;14.75;74.70
62464;SHT31;48512;48.552;9.380;2023-10-09T06:17:58;14.82;74.18
62464;SHT31;48512;48.552;9.380;2023-10-09T06:20:44;14.89;73.92
62464;SHT31;48512;48.552;9.380;2023-10-09T06:23:28;14.98;73.42
62464;SHT31;48512;48.552;9.380;2023-10-09T06:26:12;15.09;72.86
62464;SHT31;48512;48.552;9.380;2023-10-09T06:28:50;15.51;68.81
62464;SHT31;48512;48.552;9.380;2023-10-09T06:31:37;15.53;69.36
62464;SHT31;48512;48.552;9.380;2023-10-09T06:34:33;15.64;69.34
62464;SHT31;48512;48.552;9.380;2023-10-09T06:37:01;15.68;68.29
62464;SHT31;48512;48.552;9.380;2023-10-09T06:39:44;15.84;68.20
62464;SHT31;48512;48.552;9.380;2023-10-09T06:42:16;16.04;68.00
62464;SHT31;48512;48.552;9.380;2023-10-09T06:47:41;16.85;62.22
62464;SHT31;48512;48.552;9.380;2023-10-09T06:50:11;17.01;62.06
62464;SHT31;48512;48.552;9.380;2023-10-09T06:52:47;17.19;61.81
62464;SHT31;48512;48.552;9.380;2023-10-09T06:55:41;17.69;59.35
62464;SHT31;48512;48.552;9.380;2023-10-09T06:58:27;17.72;59.60
62464;SHT31;48512;48.552;9.380;2023-10-09T07:00:55;17.73;61.51
62464;SHT31;48512;48.552;9.380;2023-10-09T07:03:25;17.80;59.70
62464;SHT31;48512;48.552;9.380;2023-10-09T07:06:09;17.89;59.29
62464;SHT31;48512;48.552;9.380;2023-10-09T07:08:53;18.11;57.68
62464;SHT31;48512;48.552;9.380;2023-10-09T07:11:35;18.21;58.33
62464;SHT31;48512;48.552;9.380;2023-10-09T07:14:18;18.48;56.62
62464;SHT31;48512;48.552;9.380;2023-10-09T07:17:08;18.65;56.21
62464;SHT31;48512;48.552;9.380;2023-10-09T07:20:11;18.72;56.23
62464;SHT31;48512;48.552;9.380;2023-10-09T07:23:01;18.92;55.68
62464;SHT31;48512;48.552;9.380;2023-10-09T07:25:42;19.13;54.64
62464;SHT31;48512;48.552;9.380;2023-10-09T07:28:21;19.14;54.79
62464;SHT31;48512;48.552;9.380;2023-10-09T07:31:16;19.34;54.16
62464;SHT31;48512;48.552;9.380;2023-10-09T07:33:51;19.42;54.09
62464;SHT31;48512;48.552;9.380;2023-10-09T07:36:24;19.54;53.98
62464;SHT31;48512;48.552;9.380;2023-10-09T07:39:02;19.63;53.23
62464;SHT31;48512;48.552;9.380;2023-10-09T07:41:32;19.78;52.66
62464;SHT31;48512;48.552;9.380;2023-10-09T07:43:58;20.00;52.08
62464;SHT31;48512;48.552;9.380;2023-10-09T07:46:44;20.03;52.14
62464;SHT31;48512;48.552;9.380;2023-10-09T07:49:40;20.03;52.15
62464;SHT31;48512;48.552;9.380;2023-10-09T07:52:06;20.12;51.81
62464;SHT31;48512;48.552;9.380;2023-10-09T07:54:32;20.12;52.44
62464;SHT31;48512;48.552;9.380;2023-10-09T07:56:59;20.16;52.29
62464;SHT31;48512;48.552;9.380;2023-10-09T07:59:35;20.23;51.70
62464;SHT31;48512;48.552;9.380;2023-10-09T08:02:07;20.27;51.70
62464;SHT31;48512;48.552;9.380;2023-10-09T08:04:39;20.28;52.33
62464;SHT31;48512;48.552;9.380;2023-10-09T08:07:15;20.38;51.48
62464;SHT31;48512;48.552;9.380;2023-10-09T08:09:46;20.45;51.79
62464;SHT31;48512;48.552;9.380;2023-10-09T08:12:13;20.54;51.03
62464;SHT31;48512;48.552;9.380;2023-10-09T08:14:58;20.59;51.14
62464;SHT31;48512;48.552;9.380;2023-10-09T08:20:17;20.78;50.81
62464;SHT31;48512;48.552;9.380;2023-10-09T08:22:43;20.98;49.90
62464;SHT31;48512;48.552;9.380;2023-10-09T08:25:16;21.05;50.10
62464;SHT31;48512;48.552;9.380;2023-10-09T08:28:20;21.10;50.45
62464;SHT31;48512;48.552;9.380;2023-10-09T08:31:19;21.20;50.19
62464;SHT31;48512;48.552;9.380;2023-10-09T08:34:00;21.33;49.74
62464;SHT31;48512;48.552;9.380;2023-10-09T08:36:28;21.39;49.86
62464;SHT31;48512;48.552;9.380;2023-10-09T08:38:55;21.51;49.58
62464;SHT31;48512;48.552;9.380;2023-10-09T08:41:25;21.55;49.66
62464;SHT31;48512;48.552;9.380;2023-10-09T08:43:57;21.61;49.50
62464;SHT31;48512;48.552;9.380;2023-10-09T08:46:25;21.62;49.86
62464;SHT31;48512;48.552;9.380;2023-10-09T08:48:58;21.74;49.42
62464;SHT31;48512;48.552;9.380;2023-10-09T08:51:26;21.81;49.11
62464;SHT31;48512;48.552;9.380;2023-10-09T08:53:53;21.87;49.36
62464;SHT31;48512;48.552;9.380;2023-10-09T08:56:20;21.94;49.59
62464;SHT31;48512;48.552;9.380;2023-10-09T08:58:59;22.06;49.17
62464;SHT31;48512;48.552;9.380;2023-10-09T09:01:25;22.10;49.55
62464;SHT31;48512;48.552;9.380;2023-10-09T09:03:53;22.13;49.60
62464;SHT31;48512;48.552;9.380;2023-10-09T09:06:21;22.15;49.21
62464;SHT31;48512;48.552;9.380;2023-10-09T09:08:50;22.23;48.79
62464;SHT31;48512;48.552;9.380;2023-10-09T09:11:20;22.29;49.09
62464;SHT31;48512;48.552;9.380;2023-10-09T09:16:20;22.37;49.15
62464;SHT31;48512;48.552;9.380;2023-10-09T09:21:31;22.39;48.76
62464;SHT31;48512;48.552;9.380;2023-10-09T09:24:04;22.42;48.80
62464;SHT31;48512;48.552;9.380;2023-10-09T09:26:43;22.52;48.60
62464;SHT31;48512;48.552;9.380;2023-10-09T09:29:13;22.53;49.06
62464;SHT31;48512;48.552;9.380;2023-10-09T09:31:55;22.64;48.84
62464;SHT31;48512;48.552;9.380;2023-10-09T09:34:44;22.73;49.41
62464;SHT31;48512;48.552;9.380;2023-10-09T09:37:19;22.87;49.30
62464;SHT31;48512;48.552;9.380;2023-10-09T09:39:47;22.86;48.03
62464;SHT31;48512;48.552;9.380;2023-10-09T09:42:16;22.92;48.63
62464;SHT31;48512;48.552;9.380;2023-10-09T09:44:51;23.02;49.09
62464;SHT31;48512;48.552;9.380;2023-10-09T09:47:18;23.08;48.47
62464;SHT31;48512;48.552;9.380;2023-10-09T09:49:56;23.14;47.86
62464;SHT31;48512;48.552;9.380;2023-10-09T09:52:29;23.15;47.88
62464;SHT31;48512;48.552;9.380;2023-10-09T09:55:08;23.21;47.81
62464;SHT31;48512;48.552;9.380;2023-10-09T09:57:47;23.23;48.63
62464;SHT31;48512;48.552;9.380;2023-10-09T10:00:22;23.25;47.30
62464;SHT31;48512;48.552;9.380;2023-10-09T10:03:25;23.38;47.42
62464;SHT31;48512;48.552;9.380;2023-10-09T10:05:54;23.46;47.45
62464;SHT31;48512;48.552;9.380;2023-10-09T10:08:24;23.57;47.41
62464;SHT31;48512;48.552;9.380;2023-10-09T10:10:59;23.65;47.69
62464;SHT31;48512;48.552;9.380;2023-10-09T10:16:12;23.80;46.66
62464;SHT31;48512;48.552;9.380;2023-10-09T10:19:04;23.98;46.45
62464;SHT31;48512;48.552;9.380;2023-10-09T10:21:34;24.42;46.17
62464;SHT31;48512;48.552;9.380;2023-10-09T10:29:35;24.56;45.98
62464;SHT31;48512;48.552;9.380;2023-10-09T10:32:04;24.75;46.14
62464;SHT31;48512;48.552;9.380;2023-10-09T10:37:34;24.91;45.85
62464;SHT31;48512;48.552;9.380;2023-10-09T10:40:07;24.86;45.81
62464;SHT31;48512;48.552;9.380;2023-10-09T10:42:48;24.70;44.58
62464;SHT31;48512;48.552;9.380;2023-10-09T10:45:35;24.56;44.92
62464;SHT31;48512;48.552;9.380;2023-10-09T10:48:02;24.66;45.16
62464;SHT31;48512;48.552;9.380;2023-10-09T10:50:35;24.77;45.33
62464;SHT31;48512;48.552;9.380;2023-10-09T10:53:14;24.79;45.13
62464;SHT31;48512;48.552;9.380;2023-10-09T10:55:59;24.83;45.15
62464;SHT31;48512;48.552;9.380;2023-10-09T10:58:51;24.90;44.81
62464;SHT31;48512;48.552;9.380;2023-10-09T11:01:20;24.89;44.38
62464;SHT31;48512;48.552;9.380;2023-10-09T11:03:51;24.91;44.52
62464;SHT31;48512;48.552;9.380;2023-10-09T11:06:30;24.87;44.87
62464;SHT31;48512;48.552;9.380;2023-10-09T11:09:04;24.89;45.39
62464;SHT31;48512;48.552;9.380;2023-10-09T11:11:50;24.77;45.95
62464;SHT31;48512;48.552;9.380;2023-10-09T11:14:45;24.55;44.79
62464;SHT31;48512;48.552;9.380;2023-10-09T11:17:18;24.38;44.85
62464;SHT31;48512;48.552;9.380;2023-10-09T11:19:51;24.36;47.88
62464;SHT31;48512;48.552;9.380;2023-10-09T11:22:18;24.36;45.85
62464;SHT31;48512;48.552;9.380;2023-10-09T11:25:02;24.36;45.44
62464;SHT31;48512;48.552;9.380;2023-10-09T11:27:40;24.32;46.09
62464;SHT31;48512;48.552;9.380;2023-10-09T11:30:16;24.28;46.22
62464;SHT31;48512;48.552;9.380;2023-10-09T11:33:04;24.22;46.16
62464;SHT31;48512;48.552;9.380;2023-10-09T11:35:30;24.24;46.39
62464;SHT31;48512;48.552;9.380;2023-10-09T11:38:00;24.20;45.85
62464;SHT31;48512;48.552;9.380;2023-10-09T11:40:47;24.28;45.46
62464;SHT31;48512;48.552;9.380;2023-10-09T11:43:15;24.25;45.80
62464;SHT31;48512;48.552;9.380;2023-10-09T11:45:42;24.28;45.30
62464;SHT31;48512;48.552;9.380;2023-10-09T11:48:21;24.26;45.74
62464;SHT31;48512;48.552;9.380;2023-10-09T11:50:59;24.34;45.85
62464;SHT31;48512;48.552;9.380;2023-10-09T11:53:28;24.18;45.39
62464;SHT31;48512;48.552;9.380;2023-10-09T11:55:54;24.17;45.29
62464;SHT31;48512;48.552;9.380;2023-10-09T11:58:21;24.08;45.40
62464;SHT31;48512;48.552;9.380;2023-10-09T12:00:58;24.08;45.38
62464;SHT31;48512;48.552;9.380;2023-10-09T12:03:31;24.07;45.69
62464;SHT31;48512;48.552;9.380;2023-10-09T12:05:59;24.07;45.89
62464;SHT31;48512;48.552;9.380;2023-10-09T12:08:38;24.05;45.38
62464;SHT31;48512;48.552;9.380;2023-10-09T12:11:08;24.04;46.00
62464;SHT31;48512;48.552;9.380;2023-10-09T12:13:36;23.98;46.33
62464;SHT31;48512;48.552;9.380;2023-10-09T12:16:04;23.87;45.82
62464;SHT31;48512;48.552;9.380;2023-10-09T12:18:34;23.78;46.21
62464;SHT31;48512;48.552;9.380;2023-10-09T12:21:05;23.70;46.52
62464;SHT31;48512;48.552;9.380;2023-10-09T12:23:32;23.62;46.67
62464;SHT31;48512;48.552;9.380;2023-10-09T12:26:06;23.66;46.91
62464;SHT31;48512;48.552;9.380;2023-10-09T12:28:43;23.59;47.45
62464;SHT31;48512;48.552;9.380;2023-10-09T12:31:16;23.60;47.40
62464;SHT31;48512;48.552;9.380;2023-10-09T12:33:46;23.65;47.45
62464;SHT31;48512;48.552;9.380;2023-10-09T12:36:13;23.65;48.03
62464;SHT31;48512;48.552;9.380;2023-10-09T12:38:47;23.65;47.44
62464;SHT31;48512;48.552;9.380;2023-10-09T12:41:18;23.66;47.26
62464;SHT31;48512;48.552;9.380;2023-10-09T12:43:55;23.70;47.03
62464;SHT31;48512;48.552;9.380;2023-10-09T12:46:24;23.78;46.72
62464;SHT31;48512;48.552;9.380;2023-10-09T12:48:52;23.90;46.79
62464;SHT31;48512;48.552;9.380;2023-10-09T12:51:21;23.92;47.14
62464;SHT31;48512;48.552;9.380;2023-10-09T12:53:51;24.05;47.55
62464;SHT31;48512;48.552;9.380;2023-10-09T12:56:26;24.17;48.27
62464;SHT31;48512;48.552;9.380;2023-10-09T12:58:59;24.25;47.32
62464;SHT31;48512;48.552;9.380;2023-10-09T13:01:27;24.25;46.44
62464;SHT31;48512;48.552;9.380;2023-10-09T13:03:58;24.52;46.04
62464;SHT31;48512;48.552;9.380;2023-10-09T13:06:26;24.76;44.96
62464;SHT31;48512;48.552;9.380;2023-10-09T13:08:52;25.24;44.51
62464;SHT31;48512;48.552;9.380;2023-10-09T13:11:18;25.75;43.44
62464;SHT31;48512;48.552;9.380;2023-10-09T13:13:47;26.12;43.06
62464;SHT31;48512;48.552;9.380;2023-10-09T13:16:20;26.44;42.78
62464;SHT31;48512;48.552;9.380;2023-10-09T13:21:29;26.48;42.69
62464;SHT31;48512;48.552;9.380;2023-10-09T13:23:58;26.10;42.36
62464;SHT31;48512;48.552;9.380;2023-10-09T13:26:26;25.71;43.04
62464;SHT31;48512;48.552;9.380;2023-10-09T13:28:57;25.55;42.81
62464;SHT31;48512;48.552;9.380;2023-10-09T13:31:24;25.54;43.68
62464;SHT31;48512;48.552;9.380;2023-10-09T13:33:53;25.58;43.76
62464;SHT31;48512;48.552;9.380;2023-10-09T13:36:22;25.82;43.19
62464;SHT31;48512;48.552;9.380;2023-10-09T13:39:06;26.34;42.33
62464;SHT31;48512;48.552;9.380;2023-10-09T13:41:57;26.72;41.88
62464;SHT31;48512;48.552;9.380;2023-10-09T13:44:25;26.79;41.96
62464;SHT31;48512;48.552;9.380;2023-10-09T13:49:26;27.20;40.53
62464;SHT31;48512;48.552;9.380;2023-10-09T13:52:02;27.60;39.57
62464;SHT31;48512;48.552;9.380;2023-10-09T13:54:29;28.00;39.33
62464;SHT31;48512;48.552;9.380;2023-10-09T13:57:03;28.13;38.76
62464;SHT31;48512;48.552;9.380;2023-10-09T13:59:31;27.87;39.21
62464;SHT31;48512;48.552;9.380;2023-10-09T14:01:57;27.97;38.18
62464;SHT31;48512;48.552;9.380;2023-10-09T14:04:25;28.16;38.12
62464;SHT31;48512;48.552;9.380;2023-10-09T14:06:54;28.68;37.89
62464;SHT31;48512;48.552;9.380;2023-10-09T14:09:25;29.01;37.39
62464;SHT31;48512;48.552;9.380;2023-10-09T14:11:58;29.24;36.92
62464;SHT31;48512;48.552;9.380;2023-10-09T14:14:50;29.25;36.39
62464;SHT31;48512;48.552;9.380;2023-10-09T14:17:23;29.21;36.36
62464;SHT31;48512;48.552;9.380;2023-10-09T14:19:52;28.94;36.40
62464;SHT31;48512;48.552;9.380;2023-10-09T14:22:22;29.24;36.65
62464;SHT31;48512;48.552;9.380;2023-10-09T14:24:53;29.45;35.70
62464;SHT31;48512;48.552;9.380;2023-10-09T14:27:24;28.93;36.60
62464;SHT31;48512;48.552;9.380;2023-10-09T14:29:56;29.19;36.76
62464;SHT31;48512;48.552;9.380;2023-10-09T14:32:25;29.11;37.29
62464;SHT31;48512;48.552;9.380;2023-10-09T14:35:10;28.31;36.89
62464;SHT31;48512;48.552;9.380;2023-10-09T14:37:40;28.59;37.98
62464;SHT31;48512;48.552;9.380;2023-10-09T14:40:07;28.66;36.90
62464;SHT31;48512;48.552;9.380;2023-10-09T14:42:41;28.38;36.90
62464;SHT31;48512;48.552;9.380;2023-10-09T14:45:11;28.23;38.14
62464;SHT31;48512;48.552;9.380;2023-10-09T14:47:42;28.18;37.53
62464;SHT31;48512;48.552;9.380;2023-10-09T14:50:08;28.32;37.45
62464;SHT31;48512;48.552;9.380;2023-10-09T14:52:35;28.22;37.16
62464;SHT31;48512;48.552;9.380;2023-10-09T14:55:08;28.28;36.58
62464;SHT31;48512;48.552;9.380;2023-10-09T14:57:35;27.74;37.37
62464;SHT31;48512;48.552;9.380;2023-10-09T15:00:02;27.57;37.27
62464;SHT31;48512;48.552;9.380;2023-10-09T15:02:39;27.44;37.41
62464;SHT31;48512;48.552;9.380;2023-10-09T15:05:06;27.39;38.10
62464;SHT31;48512;48.552;9.380;2023-10-09T15:07:36;26.95;38.04
62464;SHT31;48512;48.552;9.380;2023-10-09T15:10:05;26.55;38.52
62464;SHT31;48512;48.552;9.380;2023-10-09T15:12:31;26.40;38.94
62464;SHT31;48512;48.552;9.380;2023-10-09T15:14:57;26.26;38.49
62464;SHT31;48512;48.552;9.380;2023-10-09T15:17:23;26.24;39.04
62464;SHT31;48512;48.552;9.380;2023-10-09T15:19:50;26.29;38.58
62464;SHT31;48512;48.552;9.380;2023-10-09T15:22:22;26.24;38.75
62464;SHT31;48512;48.552;9.380;2023-10-09T15:24:48;26.29;39.30
62464;SHT31;48512;48.552;9.380;2023-10-09T15:27:14;26.22;39.36
62464;SHT31;48512;48.552;9.380;2023-10-09T15:29:41;26.07;39.54
62464;SHT31;48512;48.552;9.380;2023-10-09T15:32:10;26.14;39.63
62464;SHT31;48512;48.552;9.380;2023-10-09T15:34:48;26.14;39.69
62464;SHT31;48512;48.552;9.380;2023-10-09T15:37:14;26.07;39.81
62464;SHT31;48512;48.552;9.380;2023-10-09T15:39:40;25.99;39.03
62464;SHT31;48512;48.552;9.380;2023-10-09T15:42:08;25.86;39.75
62464;SHT31;48512;48.552;9.380;2023-10-09T15:44:34;25.72;40.04
62464;SHT31;48512;48.552;9.380;2023-10-09T15:47:03;25.55;40.64
62464;SHT31;48512;48.552;9.380;2023-10-09T15:49:29;25.45;40.98
62464;SHT31;48512;48.552;9.380;2023-10-09T15:52:00;25.10;40.80
62464;SHT31;48512;48.552;9.380;2023-10-09T15:54:29;25.00;41.07
62464;SHT31;48512;48.552;9.380;2023-10-09T15:56:55;24.94;41.20
62464;SHT31;48512;48.552;9.380;2023-10-09T15:59:25;24.82;41.27
62464;SHT31;48512;48.552;9.380;2023-10-09T16:01:51;24.75;41.29
62464;SHT31;48512;48.552;9.380;2023-10-09T16:04:17;24.69;41.42
62464;SHT31;48512;48.552;9.380;2023-10-09T16:06:43;24.62;41.48
62464;SHT31;48512;48.552;9.380;2023-10-09T16:09:09;24.48;41.71
62464;SHT31;48512;48.552;9.380;2023-10-09T16:11:41;24.42;41.70
62464;SHT31;48512;48.552;9.380;2023-10-09T16:14:07;24.29;42.06
62464;SHT31;48512;48.552;9.380;2023-10-09T16:16:36;24.26;42.19
62464;SHT31;48512;48.552;9.380;2023-10-09T16:19:10;24.20;42.52
62464;SHT31;48512;48.552;9.380;2023-10-09T16:21:38;24.15;42.53
62464;SHT31;48512;48.552;9.380;2023-10-09T16:24:05;24.08;42.58
62464;SHT31;48512;48.552;9.380;2023-10-09T16:26:33;24.10;42.79
62464;SHT31;48512;48.552;9.380;2023-10-09T16:29:11;24.01;43.00
62464;SHT31;48512;48.552;9.380;2023-10-09T16:31:38;23.92;43.22
62464;SHT31;48512;48.552;9.380;2023-10-09T16:34:05;23.92;43.49
62464;SHT31;48512;48.552;9.380;2023-10-09T16:36:36;23.86;43.70
62464;SHT31;48512;48.552;9.380;2023-10-09T16:39:05;23.77;43.64
62464;SHT31;48512;48.552;9.380;2023-10-09T16:41:47;23.70;43.75
62464;SHT31;48512;48.552;9.380;2023-10-09T16:44:13;23.66;44.36